| time (UTC) | temp F | wind direction | speed knots | gust knots | rain 1hr in | rain 24hr in | rain mn in | humidity % | barometer mb |
| 20260503051400 | 50 | 222 | 3.5 | 6.1 | 0.00 | 0.00 | 0.00 | 61 | 1002.1 |
| 20260503050858 | 51 | 239 | 3.5 | 7.0 | 0.00 | 0.00 | 0.00 | 62 | 1002.1 |
| 20260503050354 | 50 | 223 | 5.2 | 7.8 | 0.00 | 0.00 | 0.00 | 62 | 1002.3 |
| 20260503045851 | 50 | 210 | 2.6 | 6.1 | 0.00 | 0.00 | 0.00 | 62 | 1002.3 |
| 20260503045349 | 49 | 204 | 2.6 | 3.5 | 0.00 | 0.00 | 0.00 | 63 | 1002.2 |
| 20260503044845 | 48 | 213 | 0.9 | 1.7 | 0.00 | 0.00 | 0.00 | 65 | 1002.3 |
| 20260503044342 | 47 | 192 | 0.9 | 0.9 | 0.00 | 0.00 | 0.00 | 67 | 1002.3 |
| 20260503043839 | 48 | 177 | 0.0 | 0.9 | 0.00 | 0.00 | 0.00 | 65 | 1002.5 |
| 20260503043336 | 48 | 182 | 0.9 | 0.9 | 0.00 | 0.00 | 0.00 | 65 | 1002.6 |
| 20260503042832 | 47 | 197 | 0.9 | 0.9 | 0.00 | 0.00 | 0.00 | 66 | 1002.5 |
| 20260503042329 | 48 | 177 | 0.0 | 0.9 | 0.00 | 0.00 | 0.00 | 66 | 1002.5 |
| 20260503041825 | 48 | 176 | 0.0 | 0.9 | 0.00 | 0.00 | 0.00 | 66 | 1002.6 |
| 20260503041323 | 48 | 175 | 0.9 | 0.9 | 0.00 | 0.00 | 0.00 | 64 | 1002.6 |
| 20260503040820 | 48 | 171 | 0.0 | 0.0 | 0.00 | 0.00 | 0.00 | 64 | 1002.5 |
| 20260503040318 | 48 | 179 | 0.0 | 0.9 | 0.00 | 0.00 | 0.00 | 64 | 1002.9 |
| 20260503035815 | 48 | 184 | 0.9 | 0.9 | 0.00 | 0.00 | 0.00 | 64 | 1002.6 |
| 20260503035312 | 49 | 187 | 0.9 | 0.9 | 0.00 | 0.00 | 0.00 | 65 | 1002.7 |
| 20260503034809 | 49 | 180 | 0.9 | 0.9 | 0.00 | 0.00 | 0.00 | 65 | 1003.0 |
| 20260503034306 | 49 | 175 | 0.0 | 0.9 | 0.00 | 0.00 | 0.00 | 64 | 1003.1 |
| 20260503033803 | 48 | 187 | 1.7 | 1.7 | 0.00 | 0.00 | 0.00 | 64 | 1003.2 |
| 20260503033300 | 48 | 181 | 0.9 | 0.9 | 0.00 | 0.00 | 0.00 | 66 | 1003.1 |
| 20260503032758 | 49 | 177 | 0.9 | 1.7 | 0.00 | 0.00 | 0.00 | 66 | 1003.2 |
| 20260503032257 | 48 | 182 | 0.0 | 0.9 | 0.00 | 0.00 | 0.00 | 66 | 1003.1 |
| 20260503031754 | 49 | 181 | 0.0 | 0.9 | 0.00 | 0.00 | 0.00 | 67 | 1003.2 |
| 20260503031252 | 49 | 181 | 0.9 | 1.7 | 0.00 | 0.00 | 0.00 | 66 | 1003.4 |
| 20260503030748 | 50 | 184 | 0.9 | 1.7 | 0.00 | 0.00 | 0.00 | 64 | 1003.3 |
| 20260503030245 | 50 | 185 | 0.9 | 0.9 | 0.00 | 0.00 | 0.00 | 64 | 1003.6 |
| 20260503025741 | 50 | 175 | 0.0 | 1.7 | 0.00 | 0.00 | 0.00 | 65 | 1003.6 |
| 20260503025239 | 50 | 176 | 0.0 | 0.9 | 0.00 | 0.00 | 0.00 | 64 | 1003.6 |
| 20260503024736 | 51 | 181 | 0.9 | 0.9 | 0.00 | 0.00 | 0.00 | 62 | 1003.6 |
| 20260503024233 | 52 | 171 | 0.9 | 1.7 | 0.00 | 0.00 | 0.00 | 59 | 1003.6 |
| 20260503023729 | 52 | 193 | 0.9 | 1.7 | 0.00 | 0.00 | 0.00 | 59 | 1003.6 |
| 20260503023226 | 52 | 209 | 1.7 | 1.7 | 0.00 | 0.00 | 0.00 | 58 | 1003.8 |
| 20260503022722 | 52 | 205 | 1.7 | 1.7 | 0.00 | 0.00 | 0.00 | 59 | 1003.9 |
| 20260503022217 | 52 | 193 | 0.9 | 2.6 | 0.00 | 0.00 | 0.00 | 59 | 1003.8 |
| 20260503021714 | 51 | 205 | 1.7 | 1.7 | 0.00 | 0.00 | 0.00 | 60 | 1003.9 |
| 20260503021210 | 51 | 190 | 0.9 | 2.6 | 0.00 | 0.00 | 0.00 | 60 | 1004.0 |
| 20260503020708 | 51 | 176 | 0.0 | 0.9 | 0.00 | 0.00 | 0.00 | 62 | 1004.1 |
| 20260503020205 | 51 | 188 | 0.0 | 0.9 | 0.00 | 0.00 | 0.00 | 61 | 1004.0 |
| 20260503015702 | 51 | 181 | 0.9 | 0.9 | 0.00 | 0.00 | 0.00 | 63 | 1004.0 |
| 20260503015159 | 51 | 180 | 0.0 | 0.9 | 0.00 | 0.00 | 0.00 | 61 | 1003.8 |
| 20260503014654 | 51 | 181 | 0.0 | 0.9 | 0.00 | 0.00 | 0.00 | 58 | 1004.1 |
| 20260503014153 | 52 | 181 | 0.9 | 0.9 | 0.00 | 0.00 | 0.00 | 58 | 1004.0 |
| 20260503013649 | 51 | 201 | 0.9 | 0.9 | 0.00 | 0.00 | 0.00 | 59 | 1003.9 |
| 20260503013147 | 50 | 195 | 0.9 | 1.7 | 0.00 | 0.00 | 0.00 | 62 | 1003.7 |
| 20260503012644 | 51 | 177 | 0.9 | 0.9 | 0.00 | 0.00 | 0.00 | 60 | 1004.0 |
| 20260503012141 | 52 | 180 | 0.0 | 0.9 | 0.00 | 0.00 | 0.00 | 59 | 1003.9 |
| 20260503011637 | 52 | 188 | 0.9 | 0.9 | 0.00 | 0.00 | 0.00 | 57 | 1003.9 |
| 20260503011135 | 53 | 177 | 0.9 | 1.7 | 0.00 | 0.00 | 0.00 | 55 | 1004.0 |
| 20260503010631 | 53 | 198 | 1.7 | 2.6 | 0.00 | 0.00 | 0.00 | 55 | 1004.1 |
| 20260503010128 | 53 | 188 | 0.9 | 1.7 | 0.00 | 0.00 | 0.00 | 56 | 1004.1 |
| 20260503005625 | 53 | 205 | 1.7 | 1.7 | 0.00 | 0.00 | 0.00 | 54 | 1004.2 |
| 20260503005122 | 53 | 202 | 0.9 | 1.7 | 0.00 | 0.00 | 0.00 | 55 | 1004.4 |
| 20260503004618 | 54 | 210 | 1.7 | 1.7 | 0.00 | 0.00 | 0.00 | 53 | 1004.3 |
| 20260503004117 | 54 | 185 | 0.9 | 1.7 | 0.00 | 0.00 | 0.00 | 52 | 1004.3 |
| 20260503003614 | 54 | 221 | 0.9 | 1.7 | 0.00 | 0.00 | 0.00 | 51 | 1004.3 |
| 20260503003111 | 54 | 224 | 3.5 | 3.5 | 0.00 | 0.00 | 0.00 | 51 | 1004.4 |
| 20260503002608 | 55 | 244 | 0.9 | 1.7 | 0.00 | 0.00 | 0.00 | 50 | 1004.4 |
| 20260503002104 | 55 | 179 | 0.9 | 3.5 | 0.00 | 0.00 | 0.00 | 48 | 1004.4 |
| 20260503001600 | 55 | 245 | 2.6 | 5.2 | 0.00 | 0.00 | 0.00 | 48 | 1004.4 |
| 20260503001058 | 56 | 237 | 2.6 | 6.1 | 0.00 | 0.00 | 0.00 | 48 | 1004.3 |
| 20260503000555 | 56 | 264 | 2.6 | 3.5 | 0.00 | 0.00 | 0.00 | 47 | 1004.5 |
| 20260503000052 | 56 | 198 | 0.9 | 2.6 | 0.00 | 0.00 | 0.00 | 47 | 1004.4 |
| 20260502235548 | 57 | 267 | 2.6 | 5.2 | 0.00 | 0.00 | 0.00 | 45 | 1004.1 |
| 20260502235047 | 57 | 201 | 0.9 | 5.2 | 0.00 | 0.00 | 0.00 | 46 | 1004.5 |
| 20260502234542 | 57 | 269 | 3.5 | 5.2 | 0.00 | 0.00 | 0.00 | 45 | 1004.8 |
| 20260502234040 | 57 | 279 | 3.5 | 6.1 | 0.00 | 0.00 | 0.00 | 43 | 1004.5 |
| 20260502233540 | 58 | 240 | 1.7 | 3.5 | 0.00 | 0.00 | 0.00 | 44 | 1004.6 |
| 20260502233038 | 57 | 262 | 1.7 | 3.5 | 0.00 | 0.00 | 0.00 | 47 | 1004.5 |
| 20260502232534 | 57 | 280 | 1.7 | 2.6 | 0.00 | 0.00 | 0.00 | 48 | 1004.5 |
| 20260502232031 | 57 | 237 | 3.5 | 6.1 | 0.00 | 0.00 | 0.00 | 45 | 1004.7 |
| 20260502231528 | 57 | 223 | 1.7 | 6.1 | 0.00 | 0.00 | 0.00 | 44 | 1004.5 |
| 20260502231026 | 57 | 326 | 3.5 | 7.0 | 0.00 | 0.00 | 0.00 | 44 | 1004.7 |
| 20260502230524 | 57 | 276 | 5.2 | 7.0 | 0.00 | 0.00 | 0.00 | 42 | 1004.9 |
| 20260502230023 | 58 | 250 | 3.5 | 5.2 | 0.00 | 0.00 | 0.00 | 42 | 1004.6 |
| 20260502225522 | 57 | 252 | 1.7 | 6.1 | 0.00 | 0.00 | 0.00 | 43 | 1004.7 |
| 20260502225020 | 57 | 249 | 5.2 | 7.8 | 0.00 | 0.00 | 0.00 | 43 | 1004.7 |
| 20260502224516 | 58 | 245 | 2.6 | 7.8 | 0.00 | 0.00 | 0.00 | 44 | 1004.6 |
| 20260502224014 | 59 | 308 | 2.6 | 7.8 | 0.00 | 0.00 | 0.00 | 44 | 1004.6 |
| 20260502223511 | 59 | 252 | 5.2 | 9.6 | 0.00 | 0.00 | 0.00 | 39 | 1004.7 |
| 20260502223009 | 59 | 187 | 3.5 | 6.1 | 0.00 | 0.00 | 0.00 | 38 | 1005.2 |
| 20260502222506 | 59 | 265 | 3.5 | 5.2 | 0.00 | 0.00 | 0.00 | 41 | 1004.8 |
| 20260502222002 | 59 | 300 | 3.5 | 5.2 | 0.00 | 0.00 | 0.00 | 39 | 1005.0 |
| 20260502221458 | 59 | 278 | 3.5 | 6.1 | 0.00 | 0.00 | 0.00 | 40 | 1005.2 |
| 20260502220955 | 59 | 231 | 5.2 | 8.7 | 0.00 | 0.00 | 0.00 | 40 | 1004.9 |
| 20260502220451 | 59 | 273 | 3.5 | 6.1 | 0.00 | 0.00 | 0.00 | 40 | 1005.0 |
| 20260502215948 | 60 | 256 | 3.5 | 5.2 | 0.00 | 0.00 | 0.00 | 39 | 1005.1 |
| 20260502215445 | 59 | 314 | 4.3 | 6.1 | 0.00 | 0.00 | 0.00 | 39 | 1005.2 |
| 20260502214942 | 59 | 305 | 3.5 | 7.0 | 0.00 | 0.00 | 0.00 | 40 | 1005.3 |
| 20260502214439 | 59 | 231 | 3.5 | 7.8 | 0.00 | 0.00 | 0.00 | 42 | 1005.2 |
| 20260502213936 | 59 | 289 | 3.5 | 7.8 | 0.00 | 0.00 | 0.00 | 41 | 1005.1 |
| 20260502213433 | 58 | 214 | 7.0 | 8.7 | 0.00 | 0.00 | 0.00 | 37 | 1005.2 |
| 20260502212931 | 59 | 246 | 7.0 | 8.7 | 0.00 | 0.00 | 0.00 | 37 | 1005.4 |
| 20260502212430 | 58 | 268 | 4.3 | 11.3 | 0.00 | 0.00 | 0.00 | 39 | 1005.3 |
| 20260502211927 | 59 | 250 | 4.3 | 8.7 | 0.00 | 0.00 | 0.00 | 40 | 1005.4 |
| 20260502211422 | 59 | 315 | 4.3 | 6.1 | 0.00 | 0.00 | 0.00 | 38 | 1005.7 |
| 20260502210920 | 59 | 251 | 5.2 | 11.3 | 0.00 | 0.00 | 0.00 | 40 | 1005.8 |
| 20260502210417 | 59 | 322 | 1.7 | 3.5 | 0.00 | 0.00 | 0.00 | 42 | 1005.7 |
| 20260502205914 | 58 | 271 | 4.3 | 7.8 | 0.00 | 0.00 | 0.00 | 41 | 1005.5 |
| 20260502205410 | 58 | 294 | 3.5 | 7.0 | 0.00 | 0.00 | 0.00 | 41 | 1006.0 |
| 20260502204908 | 58 | 222 | 2.6 | 8.7 | 0.00 | 0.00 | 0.00 | 41 | 1005.9 |
| 20260502204404 | 58 | 273 | 6.1 | 7.8 | 0.00 | 0.00 | 0.00 | 43 | 1006.1 |
| 20260502203902 | 58 | 284 | 1.7 | 7.8 | 0.00 | 0.00 | 0.00 | 39 | 1005.8 |
| 20260502203359 | 59 | 283 | 4.3 | 7.8 | 0.00 | 0.00 | 0.00 | 45 | 1006.1 |
| 20260502202855 | 58 | 228 | 7.8 | 12.2 | 0.00 | 0.00 | 0.00 | 42 | 1006.1 |
| 20260502202352 | 57 | 310 | 4.3 | 12.2 | 0.00 | 0.00 | 0.00 | 43 | 1006.2 |
| 20260502201850 | 57 | 253 | 7.0 | 8.7 | 0.00 | 0.00 | 0.00 | 41 | 1006.2 |
| 20260502201346 | 58 | 228 | 3.5 | 5.2 | 0.00 | 0.00 | 0.00 | 41 | 1006.3 |
| 20260502200842 | 58 | 293 | 4.3 | 7.0 | 0.00 | 0.00 | 0.00 | 48 | 1006.3 |
| 20260502200338 | 57 | 285 | 3.5 | 7.8 | 0.00 | 0.00 | 0.00 | 45 | 1006.3 |
| 20260502195837 | 57 | 223 | 3.5 | 7.0 | 0.00 | 0.00 | 0.00 | 39 | 1006.5 |
| 20260502195333 | 58 | 250 | 4.3 | 6.1 | 0.00 | 0.00 | 0.00 | 42 | 1006.5 |
| 20260502194830 | 57 | 265 | 1.7 | 5.2 | 0.00 | 0.00 | 0.00 | 45 | 1006.8 |
| 20260502194327 | 57 | 282 | 4.3 | 6.1 | 0.00 | 0.00 | 0.00 | 41 | 1006.6 |
| 20260502193822 | 56 | 240 | 4.3 | 6.1 | 0.00 | 0.00 | 0.00 | 45 | 1006.7 |
| 20260502193320 | 57 | 301 | 3.5 | 7.0 | 0.00 | 0.00 | 0.00 | 41 | 1006.9 |
| 20260502192815 | 57 | 236 | 1.7 | 6.1 | 0.00 | 0.00 | 0.00 | 41 | 1007.0 |
| 20260502192313 | 57 | 284 | 1.7 | 5.2 | 0.00 | 0.00 | 0.00 | 42 | 1007.2 |
| 20260502191810 | 57 | 291 | 2.6 | 6.1 | 0.00 | 0.00 | 0.00 | 44 | 1007.2 |
| 20260502191307 | 56 | 253 | 3.5 | 9.6 | 0.00 | 0.00 | 0.00 | 44 | 1007.2 |
| 20260502190804 | 57 | 242 | 1.7 | 6.1 | 0.00 | 0.00 | 0.00 | 41 | 1007.2 |
| 20260502190301 | 57 | 247 | 8.7 | 8.7 | 0.00 | 0.00 | 0.00 | 41 | 1007.3 |
| 20260502185757 | 57 | 261 | 5.2 | 7.8 | 0.00 | 0.00 | 0.00 | 42 | 1007.3 |
| 20260502185253 | 56 | 199 | 2.6 | 9.6 | 0.00 | 0.00 | 0.00 | 47 | 1007.4 |
| 20260502184749 | 56 | 259 | 3.5 | 8.7 | 0.00 | 0.00 | 0.00 | 40 | 1007.5 |
| 20260502184245 | 56 | 318 | 4.3 | 6.1 | 0.00 | 0.00 | 0.00 | 46 | 1007.6 |
| 20260502183743 | 55 | 215 | 3.5 | 9.6 | 0.00 | 0.00 | 0.00 | 50 | 1007.7 |
| 20260502183238 | 55 | 331 | 2.6 | 5.2 | 0.00 | 0.00 | 0.00 | 44 | 1007.5 |
| 20260502182734 | 55 | 244 | 3.5 | 7.8 | 0.00 | 0.00 | 0.00 | 42 | 1007.4 |
| 20260502182229 | 55 | 230 | 4.3 | 7.8 | 0.00 | 0.00 | 0.00 | 45 | 1007.8 |
| 20260502181726 | 54 | 239 | 0.9 | 3.5 | 0.00 | 0.00 | 0.00 | 44 | 1007.6 |
| 20260502181226 | 55 | 340 | 1.7 | 7.0 | 0.00 | 0.00 | 0.00 | 43 | 1007.8 |
| 20260502180722 | 55 | 253 | 4.3 | 7.0 | 0.00 | 0.00 | 0.00 | 42 | 1007.8 |
| 20260502180220 | 53 | 241 | 7.0 | 11.3 | 0.00 | 0.00 | 0.00 | 44 | 1007.9 |
| 20260502170144 | 53 | 230 | 5.2 | 7.0 | 0.00 | 0.00 | 0.00 | 46 | 1008.8 |
| 20260502164130 | 53 | 167 | 0.9 | 5.2 | 0.00 | 0.00 | 0.00 | 44 | 1008.7 |
| 20260502163626 | 54 | 345 | 2.6 | 5.2 | 0.00 | 0.00 | 0.00 | 46 | 1008.8 |
| 20260502163123 | 53 | 247 | 3.5 | 7.0 | 0.00 | 0.00 | 0.00 | 45 | 1008.8 |
| 20260502162620 | 53 | 243 | 3.5 | 7.0 | 0.00 | 0.00 | 0.00 | 45 | 1009.0 |
| 20260502162117 | 53 | 5 | 3.5 | 6.1 | 0.00 | 0.00 | 0.00 | 44 | 1009.0 |
| 20260502161614 | 52 | 300 | 2.6 | 3.5 | 0.00 | 0.00 | 0.00 | 50 | 1009.1 |
| 20260502161111 | 52 | 254 | 3.5 | 7.0 | 0.00 | 0.00 | 0.00 | 46 | 1009.1 |
| 20260502160609 | 52 | 303 | 4.3 | 6.1 | 0.00 | 0.00 | 0.00 | 48 | 1009.2 |
| 20260502160108 | 51 | 315 | 1.7 | 6.1 | 0.00 | 0.00 | 0.00 | 51 | 1009.3 |
| 20260502152022 | 50 | 242 | 2.6 | 3.5 | 0.00 | 0.00 | 0.00 | 54 | 1009.7 |
| 20260502151519 | 49 | 211 | 4.3 | 6.1 | 0.00 | 0.00 | 0.00 | 52 | 1009.6 |
| 20260502151016 | 49 | 303 | 3.5 | 5.2 | 0.00 | 0.00 | 0.00 | 52 | 1009.6 |
| 20260502150514 | 48 | 226 | 1.7 | 3.5 | 0.00 | 0.00 | 0.00 | 54 | 1009.5 |
| 20260502130358 | 43 | 183 | 2.6 | 5.2 | 0.00 | 0.00 | 0.00 | 62 | 1010.5 |
| 20260502123341 | 39 | 191 | 1.7 | 2.6 | 0.00 | 0.00 | 0.00 | 69 | 1010.5 |
| 20260502122838 | 39 | 177 | 0.9 | 0.9 | 0.00 | 0.00 | 0.00 | 72 | 1010.2 |
| 20260502122334 | 37 | 165 | 1.7 | 1.7 | 0.00 | 0.00 | 0.00 | 74 | 1010.3 |
| 20260502121833 | 36 | 169 | 0.0 | 0.9 | 0.00 | 0.00 | 0.00 | 79 | 1010.2 |
| 20260502121330 | 35 | 166 | 0.0 | 0.9 | 0.00 | 0.00 | 0.00 | 84 | 1010.4 |
| 20260502120827 | 34 | 164 | 0.0 | 0.0 | 0.00 | 0.00 | 0.00 | 88 | 1010.7 |
| 20260502120323 | 34 | 164 | 0.0 | 0.0 | 0.00 | 0.00 | 0.00 | 89 | 1010.4 |
| 20260502115821 | 34 | 164 | 0.0 | 0.0 | 0.00 | 0.00 | 0.00 | 89 | 1010.2 |
| 20260502115318 | 34 | 164 | 0.0 | 0.0 | 0.00 | 0.00 | 0.00 | 89 | 1010.4 |
| 20260502114814 | 34 | 163 | 0.0 | 0.9 | 0.00 | 0.00 | 0.00 | 89 | 1010.4 |
| 20260502114311 | 33 | 157 | 0.0 | 0.0 | 0.00 | 0.00 | 0.00 | 90 | 1010.4 |
| 20260502113808 | 33 | 157 | 0.0 | 0.0 | 0.00 | 0.00 | 0.00 | 92 | 1010.5 |
| 20260502113306 | 33 | 158 | 0.0 | 0.0 | 0.00 | 0.00 | 0.00 | 94 | 1010.3 |
| 20260502112803 | 32 | 160 | 0.0 | 0.0 | 0.00 | 0.00 | 0.00 | 94 | 1010.4 |
| 20260502112301 | 32 | 160 | 0.0 | 0.0 | 0.00 | 0.00 | 0.00 | 94 | 1010.3 |
| 20260502111758 | 32 | 160 | 0.0 | 0.0 | 0.00 | 0.00 | 0.00 | 93 | 1010.3 |
| 20260502111255 | 32 | 160 | 0.0 | 0.0 | 0.00 | 0.00 | 0.00 | 94 | 1010.3 |
| 20260502110752 | 33 | 160 | 0.0 | 0.0 | 0.00 | 0.00 | 0.00 | 93 | 1010.2 |
| 20260502110250 | 33 | 159 | 0.0 | 0.0 | 0.00 | 0.00 | 0.00 | 92 | 1010.3 |
| 20260502105748 | 33 | 158 | 0.0 | 0.0 | 0.00 | 0.00 | 0.00 | 93 | 1010.6 |
| 20260502105244 | 32 | 158 | 0.0 | 0.0 | 0.00 | 0.00 | 0.00 | 94 | 1010.3 |
| 20260502104742 | 32 | 158 | 0.0 | 0.0 | 0.00 | 0.00 | 0.00 | 95 | 1010.5 |
| 20260502104239 | 32 | 158 | 0.0 | 0.0 | 0.00 | 0.00 | 0.00 | 95 | 1010.4 |
| 20260502103737 | 32 | 162 | 0.0 | 0.0 | 0.00 | 0.00 | 0.00 | 95 | 1010.4 |
| 20260502103234 | 32 | 162 | 0.0 | 0.0 | 0.00 | 0.00 | 0.00 | 95 | 1010.4 |
| 20260502102731 | 32 | 161 | 0.0 | 0.0 | 0.00 | 0.00 | 0.00 | 95 | 1010.4 |
| 20260502102227 | 32 | 163 | 0.0 | 0.0 | 0.00 | 0.00 | 0.00 | 94 | 1010.3 |
| 20260502101726 | 32 | 163 | 0.0 | 0.0 | 0.00 | 0.00 | 0.00 | 94 | 1010.4 |
| 20260502101224 | 32 | 163 | 0.0 | 0.0 | 0.00 | 0.00 | 0.00 | 94 | 1010.4 |
| 20260502100721 | 32 | 163 | 0.0 | 0.0 | 0.00 | 0.00 | 0.00 | 94 | 1010.6 |
| 20260502100220 | 32 | 163 | 0.0 | 0.0 | 0.00 | 0.00 | 0.00 | 94 | 1010.7 |
| 20260502091154 | 32 | 163 | 0.0 | 0.0 | 0.00 | 0.00 | 0.00 | 92 | 1010.5 |
| 20260502090651 | 32 | 163 | 0.0 | 0.0 | 0.00 | 0.00 | 0.00 | 91 | 1010.7 |
| 20260502090148 | 32 | 163 | 0.0 | 0.0 | 0.00 | 0.00 | 0.00 | 90 | 1010.5 |
| 20260502080110 | 33 | 163 | 0.0 | 0.0 | 0.00 | 0.00 | 0.00 | 87 | 1010.6 |
| 20260502071043 | 33 | 168 | 0.0 | 0.0 | 0.00 | 0.00 | 0.00 | 90 | 1010.8 |
| 20260502070541 | 34 | 168 | 0.0 | 0.0 | 0.00 | 0.00 | 0.00 | 90 | 1010.8 |
| 20260502070039 | 34 | 181 | 0.0 | 0.0 | 0.00 | 0.00 | 0.00 | 89 | 1010.8 |
| 20260502065537 | 34 | 181 | 0.0 | 0.0 | 0.00 | 0.00 | 0.00 | 89 | 1011.0 |
| 20260502065034 | 34 | 181 | 0.0 | 0.0 | 0.00 | 0.00 | 0.00 | 88 | 1010.9 |
| 20260502064533 | 35 | 185 | 0.9 | 0.9 | 0.00 | 0.00 | 0.00 | 84 | 1010.9 |
| 20260502064030 | 35 | 162 | 0.0 | 0.0 | 0.00 | 0.00 | 0.00 | 81 | 1010.9 |
| 20260502063527 | 34 | 162 | 0.0 | 0.0 | 0.00 | 0.00 | 0.00 | 81 | 1011.1 |
| 20260502063025 | 34 | 162 | 0.0 | 0.0 | 0.00 | 0.00 | 0.00 | 86 | 1010.9 |
| 20260502062522 | 34 | 175 | 0.0 | 0.0 | 0.00 | 0.00 | 0.00 | 85 | 1011.3 |
| 20260502062020 | 34 | 175 | 0.0 | 0.0 | 0.00 | 0.00 | 0.00 | 85 | 1011.0 |
| 20260502061518 | 34 | 175 | 0.0 | 0.0 | 0.00 | 0.00 | 0.00 | 85 | 1011.4 |
| 20260502061015 | 34 | 175 | 0.0 | 0.0 | 0.00 | 0.00 | 0.00 | 83 | 1011.3 |
| 20260502060509 | 34 | 175 | 0.0 | 0.9 | 0.00 | 0.00 | 0.00 | 85 | 1011.0 |
| 20260502060007 | 34 | 166 | 0.0 | 0.0 | 0.00 | 0.00 | 0.00 | 81 | 1011.1 |
| 20260502055504 | 34 | 154 | 0.0 | 0.0 | 0.00 | 0.00 | 0.00 | 82 | 1011.3 |
| 20260502055003 | 34 | 153 | 0.0 | 0.0 | 0.00 | 0.00 | 0.00 | 82 | 1010.9 |
| 20260502054501 | 34 | 153 | 0.0 | 0.0 | 0.00 | 0.00 | 0.00 | 85 | 1011.0 |
| 20260502053958 | 33 | 156 | 0.0 | 0.9 | 0.00 | 0.00 | 0.00 | 84 | 1011.3 |
| 20260502053455 | 33 | 192 | 0.9 | 0.9 | 0.00 | 0.00 | 0.00 | 87 | 1011.0 |
| 20260502052953 | 33 | 159 | 0.0 | 0.0 | 0.00 | 0.00 | 0.00 | 86 | 1011.1 |
| 20260502052451 | 33 | 159 | 0.0 | 0.0 | 0.00 | 0.00 | 0.00 | 84 | 1011.1 |
| 20260502051949 | 33 | 158 | 0.0 | 0.0 | 0.00 | 0.00 | 0.00 | 85 | 1010.8 |